Nearby METAR Reports

 

KAVP - Avoca/Wilkes B., Pennsylvania, USA
Distance from station: N 16mi, 25km
Updated: 04/08/2020 5:29am
Mist, Overcast
Mist, Overcast
 Wind from SSW
Wind: SSW 3 mph , 6 km/h
Temperature: 52°F , 11°C
Dew Point: 50°F , 10°C
Humidity: 94%
Barometer: 29.48 inHg , 998.3 hPa
Summary: Mist
Clouds: Overcast
Visibility: 4 miles , 6 km
Cloud details: Partly cloudy 200 ft
Overcast 1300 ft
2020/04/08 09:29 KAVP 080929Z 21003KT 4SM BR SCT002 OVC013 11/10 A2948 RMK AO2 T01110100
KMPO - Mt. Pocono, Pennsylvania, USA
Distance from station: E 20mi, 33km
Updated: 04/08/2020 5:32am
Mostly cloudy
Mostly cloudy
 Wind from W
Wind: W 9 mph , 15 km/h
Temperature: 50°F , 10°C
Wind Chill: 46°F , 8°C
Dew Point: 48°F , 9°C
Humidity: 94%
Barometer: 29.47 inHg , 998 hPa
Clouds: Mostly cloudy
Visibility: 10 miles , 16 km
Cloud details: Mostly cloudy 400 ft
Mostly cloudy 6500 ft
2020/04/08 09:32 KMPO 080932Z AUTO 28008KT 10SM BKN004 BKN065 10/09 A2947 RMK AO2 CIG 003V007 T01000094
 
KABE - Allentown, Pennsylvania, USA
Distance from station: SSE 36mi, 58km
Updated: 04/08/2020 5:38am
Mist, Mostly cloudy
Mist, Mostly cloudy
 
Temperature: 55°F , 13°C
Dew Point: 52°F , 11°C
Humidity: 88%
Barometer: 29.49 inHg , 998.6 hPa
Summary: Mist
Clouds: Mostly cloudy
Visibility: 3 miles , 5 km
Cloud details: Mostly cloudy 600 ft
Mostly cloudy 3200 ft
2020/04/08 09:38 KABE 080938Z 3SM BR BKN006 BKN032 13/11 A2949 RMK AO2 PRESRR T01330111 $
KXLL - Allentown Queen, Pennsylvania, USA
Distance from station: SSE 41mi, 65km
Updated: 04/08/2020 5:35am
Mist, Partly cloudy
Mist, Partly cloudy
 Wind from W
Wind: W 3 mph , 6 km/h
Temperature: 54°F , 12°C
Dew Point: 54°F , 12°C
Humidity: 100%
Barometer: 29.51 inHg , 999.3 hPa
Summary: Mist
Clouds: Partly cloudy
Visibility: 5 miles , 8 km
Cloud details: Partly cloudy 1300 ft
Partly cloudy 2700 ft
2020/04/08 09:35 KXLL 080935Z AUTO 27003KT 5SM BR SCT013 SCT027 12/12 A2951 RMK AO2 P0008